createdAt,value
2023-02-19T00:02:08.320Z,2.42
2023-02-19T00:04:40.707Z,1.90
2023-02-19T00:07:13.036Z,2.42
2023-02-19T00:09:46.069Z,1.60
2023-02-19T00:12:18.402Z,1.45
2023-02-19T00:14:50.652Z,2.35
2023-02-19T00:17:23.230Z,1.92
2023-02-19T00:19:55.599Z,1.30
2023-02-19T00:22:27.916Z,1.83
2023-02-19T00:25:00.935Z,2.13
2023-02-19T00:27:33.284Z,1.35
2023-02-19T00:30:06.979Z,1.45
2023-02-19T00:32:39.510Z,1.92
2023-02-19T00:35:15.259Z,2.50
2023-02-19T00:37:47.552Z,1.80
2023-02-19T00:40:20.450Z,2.30
2023-02-19T00:42:53.240Z,2.00
2023-02-19T00:45:25.627Z,1.90
2023-02-19T00:47:58.003Z,3.08
2023-02-19T00:50:30.437Z,1.88
2023-02-19T00:53:02.968Z,1.92
2023-02-19T00:55:35.998Z,2.30
2023-02-19T00:58:08.296Z,2.05
2023-02-19T01:00:40.589Z,2.03
2023-02-19T01:03:12.978Z,2.72
2023-02-19T01:05:46.856Z,3.28
2023-02-19T01:08:19.530Z,2.90
2023-02-19T01:10:53.065Z,1.77
2023-02-19T01:13:27.580Z,2.00
2023-02-19T01:16:03.417Z,2.42
2023-02-19T01:18:35.863Z,2.80
2023-02-19T01:21:10.022Z,2.00
2023-02-19T01:23:43.380Z,2.05
2023-02-19T01:26:18.534Z,1.80
2023-02-19T01:28:52.362Z,2.53
2023-02-19T01:31:25.365Z,2.35
2023-02-19T01:33:59.604Z,1.83
2023-02-19T01:36:33.251Z,2.30
2023-02-19T01:39:06.768Z,2.88
2023-02-19T01:41:40.872Z,2.47
2023-02-19T01:44:50.755Z,2.13
2023-02-19T01:47:23.129Z,2.42
2023-02-19T01:49:57.293Z,3.22
2023-02-19T01:52:34.167Z,2.40
2023-02-19T01:55:10.364Z,2.50
2023-02-19T01:57:48.402Z,2.00
2023-02-19T02:00:24.150Z,2.67
2023-02-19T02:03:00.319Z,2.13
2023-02-19T02:05:48.566Z,3.22
2023-02-19T02:08:38.988Z,2.75
2023-02-19T02:11:11.773Z,2.88
2023-02-19T02:13:45.636Z,3.38
2023-02-19T02:16:23.728Z,2.78
2023-02-19T02:19:09.180Z,3.45
2023-02-19T02:22:12.116Z,3.10
2023-02-19T02:25:23.450Z,2.40
2023-02-19T02:28:11.591Z,3.15
2023-02-19T02:30:49.180Z,4.60
2023-02-19T02:33:31.242Z,4.75
2023-02-19T02:36:06.473Z,2.38
2023-02-19T02:38:41.969Z,3.25
2023-02-19T02:41:15.611Z,3.35
2023-02-19T02:43:48.033Z,2.58
2023-02-19T02:46:27.780Z,3.45
2023-02-19T02:49:05.274Z,2.60
2023-02-19T02:51:43.654Z,3.17
2023-02-19T02:54:43.488Z,4.50
2023-02-19T02:57:19.033Z,4.85
2023-02-19T02:59:56.021Z,7.50
2023-02-19T03:02:30.954Z,5.47
2023-02-19T03:05:27.862Z,3.10
2023-02-19T03:08:05.353Z,4.20
2023-02-19T03:10:41.845Z,3.42
2023-02-19T03:13:38.551Z,2.88
2023-02-19T03:16:35.232Z,2.42
2023-02-19T03:19:21.583Z,2.42
2023-02-19T03:22:01.363Z,3.15
2023-02-19T03:24:55.749Z,4.50
2023-02-19T03:27:30.050Z,4.55
2023-02-19T03:30:09.737Z,4.32
2023-02-19T03:32:48.734Z,4.07
2023-02-19T03:35:25.968Z,5.00
2023-02-19T03:38:07.217Z,3.88
2023-02-19T03:40:49.021Z,4.47
2023-02-19T03:43:28.366Z,4.32
2023-02-19T03:48:48.057Z,3.03
2023-02-19T03:51:34.961Z,3.72
2023-02-19T03:54:15.863Z,4.28
2023-02-19T03:56:52.880Z,4.22
2023-02-19T03:59:33.912Z,4.78
2023-02-19T04:02:12.096Z,3.30
2023-02-19T04:04:49.755Z,4.40
2023-02-19T04:07:25.265Z,4.90
2023-02-19T04:09:57.754Z,4.50
2023-02-19T04:12:30.516Z,3.55
2023-02-19T04:15:07.423Z,3.70
2023-02-19T04:17:46.678Z,3.80
2023-02-19T04:20:22.190Z,3.88
2023-02-19T04:22:56.799Z,4.15
2023-02-19T04:25:30.095Z,5.28
2023-02-19T04:28:03.014Z,4.78
2023-02-19T04:30:35.540Z,4.97
2023-02-19T04:33:08.153Z,4.03
2023-02-19T04:35:40.629Z,4.10
2023-02-19T04:38:14.138Z,5.00
2023-02-19T04:40:46.492Z,7.03
2023-02-19T04:43:18.972Z,6.63
2023-02-19T04:45:51.309Z,5.80
2023-02-19T04:48:23.622Z,6.18
2023-02-19T04:50:56.102Z,7.20
2023-02-19T04:53:29.102Z,6.57
2023-02-19T04:56:06.161Z,6.00
2023-02-19T04:58:39.301Z,5.93
2023-02-19T05:01:12.557Z,6.00
2023-02-19T05:03:45.177Z,4.55
2023-02-19T05:06:18.275Z,5.95
2023-02-19T05:08:51.205Z,5.88
2023-02-19T05:11:23.497Z,4.50
2023-02-19T05:13:55.979Z,5.07
2023-02-19T05:16:28.344Z,4.55
2023-02-19T05:19:00.958Z,5.45
2023-02-19T05:21:33.564Z,5.03
2023-02-19T05:24:06.679Z,4.43
2023-02-19T05:26:38.973Z,2.90
2023-02-19T05:29:11.274Z,4.85
2023-02-19T05:31:43.645Z,3.90
2023-02-19T05:34:15.995Z,5.72
2023-02-19T05:36:48.316Z,5.18
2023-02-19T05:39:21.294Z,5.63
2023-02-19T05:41:53.622Z,5.82
2023-02-19T05:44:26.156Z,6.80
2023-02-19T05:46:58.436Z,29.08
2023-02-19T05:49:31.018Z,18.13
2023-02-19T05:52:03.724Z,8.50
2023-02-19T05:54:36.660Z,10.43
2023-02-19T05:57:09.313Z,13.15
2023-02-19T05:59:41.574Z,16.00
2023-02-19T06:02:13.870Z,8.98
2023-02-19T06:04:46.204Z,6.10
2023-02-19T06:07:18.467Z,6.15
2023-02-19T06:09:51.414Z,10.77
2023-02-19T06:12:24.293Z,10.90
2023-02-19T06:14:56.610Z,10.00
2023-02-19T06:17:28.907Z,7.43
2023-02-19T06:20:02.152Z,8.02
2023-02-19T06:22:34.469Z,13.30
2023-02-19T06:25:11.785Z,18.98
2023-02-19T06:27:44.149Z,18.08
2023-02-19T06:30:16.566Z,13.25
2023-02-19T06:32:51.540Z,11.60
2023-02-19T06:35:23.825Z,11.10
2023-02-19T06:37:56.117Z,10.95
2023-02-19T06:40:29.316Z,11.20
2023-02-19T06:43:02.037Z,10.93
2023-02-19T06:45:34.367Z,8.98
2023-02-19T06:48:06.668Z,13.68
2023-02-19T06:50:39.089Z,11.88
2023-02-19T06:53:11.403Z,9.07
2023-02-19T06:55:44.480Z,13.50
2023-02-19T06:58:16.778Z,14.38
2023-02-19T07:00:49.103Z,15.77
2023-02-19T07:03:21.703Z,14.75
2023-02-19T07:05:54.078Z,12.20
2023-02-19T07:08:28.518Z,14.30
2023-02-19T07:11:02.610Z,18.70
2023-02-19T07:13:34.912Z,22.10
2023-02-19T07:16:09.834Z,15.30
2023-02-19T07:18:42.210Z,11.90
2023-02-19T07:21:15.809Z,7.00
2023-02-19T07:23:48.109Z,6.88
2023-02-19T07:26:21.795Z,5.55
2023-02-19T07:28:54.283Z,6.65
2023-02-19T07:31:26.639Z,7.00
2023-02-19T07:33:58.989Z,15.02
2023-02-19T07:36:31.286Z,9.13
2023-02-19T07:39:04.218Z,6.35
2023-02-19T07:41:37.156Z,8.65
2023-02-19T07:44:12.757Z,3.63
2023-02-19T07:46:45.284Z,5.07
2023-02-19T07:49:17.729Z,9.15
2023-02-19T07:51:50.049Z,9.23
2023-02-19T07:54:22.349Z,6.00
2023-02-19T07:56:55.804Z,3.53
2023-02-19T07:59:28.114Z,3.33
2023-02-19T08:02:18.394Z,4.60
2023-02-19T08:04:50.701Z,7.03
2023-02-19T08:07:23.058Z,2.58
2023-02-19T08:10:18.840Z,3.90
2023-02-19T08:13:19.749Z,3.58
2023-02-19T08:15:56.312Z,2.15
2023-02-19T08:18:33.154Z,2.38
2023-02-19T08:21:05.733Z,3.22
2023-02-19T08:23:39.040Z,2.42
2023-02-19T08:26:11.742Z,2.60
2023-02-19T08:28:44.687Z,3.42
2023-02-19T08:31:17.312Z,2.72
2023-02-19T08:33:49.842Z,2.50
2023-02-19T08:36:22.236Z,2.20
2023-02-19T08:38:54.700Z,2.47
2023-02-19T08:41:27.470Z,2.10
2023-02-19T08:44:00.967Z,2.45
2023-02-19T08:46:34.513Z,1.70
2023-02-19T08:49:06.984Z,3.47
2023-02-19T08:51:39.352Z,2.00
2023-02-19T08:54:11.638Z,2.47
2023-02-19T08:56:43.914Z,3.13
2023-02-19T08:59:16.870Z,2.33
2023-02-19T09:01:49.198Z,3.58
2023-02-19T09:04:21.529Z,3.15
2023-02-19T09:06:54.177Z,3.95
2023-02-19T09:09:26.463Z,4.03
2023-02-19T09:11:58.914Z,2.63
2023-02-19T09:14:39.990Z,2.42
2023-02-19T09:17:12.622Z,2.42
2023-02-19T09:19:44.902Z,2.92
2023-02-19T09:22:17.194Z,2.85
2023-02-19T09:24:49.615Z,3.08
2023-02-19T09:27:21.939Z,2.53
2023-02-19T09:29:54.898Z,2.63
2023-02-19T09:32:30.289Z,2.70
2023-02-19T09:35:02.543Z,2.83
2023-02-19T09:37:35.055Z,2.30
2023-02-19T09:40:09.263Z,2.72
2023-02-19T09:42:43.045Z,2.92
2023-02-19T09:45:22.368Z,2.63
2023-02-19T09:47:57.154Z,2.58
2023-02-19T09:50:34.089Z,2.33
2023-02-19T09:53:15.826Z,2.60
2023-02-19T09:55:48.976Z,2.72
2023-02-19T09:58:26.371Z,3.50
2023-02-19T10:01:01.971Z,1.98
2023-02-19T10:03:40.548Z,4.07
2023-02-19T10:06:19.693Z,2.67
2023-02-19T10:08:54.907Z,2.45
2023-02-19T10:11:27.608Z,2.72
2023-02-19T10:14:08.422Z,2.95
2023-02-19T10:16:44.903Z,2.83
2023-02-19T10:19:17.480Z,1.83
2023-02-19T10:21:49.913Z,1.65
2023-02-19T10:24:26.834Z,2.05
2023-02-19T10:26:59.376Z,2.40
2023-02-19T10:29:31.679Z,2.83
2023-02-19T10:32:22.286Z,1.75
2023-02-19T10:35:13.008Z,2.35
2023-02-19T10:37:48.101Z,2.33
2023-02-19T10:40:23.054Z,2.90
2023-02-19T10:42:58.159Z,2.50
2023-02-19T10:45:38.073Z,1.55
2023-02-19T10:48:24.209Z,1.45
2023-02-19T10:51:04.228Z,1.17
2023-02-19T10:53:44.412Z,1.67
2023-02-19T10:56:23.747Z,2.10
2023-02-19T10:59:13.369Z,1.95
2023-02-19T11:04:33.145Z,2.08
2023-02-19T11:07:10.217Z,1.58
2023-02-19T11:09:45.235Z,1.50
2023-02-19T11:12:26.736Z,1.38
2023-02-19T11:15:12.853Z,1.33
2023-02-19T11:17:45.543Z,1.58
2023-02-19T11:20:18.586Z,2.10
2023-02-19T11:22:51.126Z,1.60
2023-02-19T11:25:25.192Z,1.27
2023-02-19T11:28:03.498Z,1.08
2023-02-19T11:30:38.903Z,1.38
2023-02-19T11:33:22.128Z,1.20
2023-02-19T11:36:17.303Z,1.20
2023-02-19T11:38:49.682Z,1.10
2023-02-19T11:41:36.836Z,1.55
2023-02-19T11:44:25.026Z,1.63
2023-02-19T11:47:14.505Z,2.28
2023-02-19T11:49:57.531Z,2.28
2023-02-19T11:52:39.504Z,2.22
2023-02-19T11:55:20.573Z,2.00
2023-02-19T11:58:05.869Z,1.20
2023-02-19T12:00:48.858Z,1.88
2023-02-19T12:03:57.808Z,2.47
2023-02-19T12:06:38.806Z,1.95
2023-02-19T12:09:20.948Z,2.05
2023-02-19T12:12:14.784Z,2.72
2023-02-19T12:15:22.419Z,2.10
2023-02-19T12:18:50.328Z,2.05
2023-02-19T12:21:43.400Z,1.70
2023-02-19T12:24:51.932Z,2.20
2023-02-19T12:27:40.380Z,2.00
2023-02-19T12:30:25.950Z,2.13
2023-02-19T12:33:21.096Z,2.85
2023-02-19T12:36:06.752Z,1.92
2023-02-19T12:38:44.019Z,3.28
2023-02-19T12:41:29.417Z,2.00
2023-02-19T12:44:08.217Z,2.20
2023-02-19T12:46:46.531Z,2.47
2023-02-19T12:49:26.187Z,2.10
2023-02-19T12:52:02.857Z,2.22
2023-02-19T12:54:40.568Z,1.98
2023-02-19T12:57:18.102Z,2.28
2023-02-19T12:59:56.076Z,2.22
2023-02-19T13:02:33.327Z,1.77
2023-02-19T13:05:13.040Z,2.42
2023-02-19T13:07:57.267Z,2.10
2023-02-19T13:10:35.164Z,2.25
2023-02-19T13:13:15.245Z,1.70
2023-02-19T13:15:52.056Z,2.03
2023-02-19T13:18:29.756Z,1.92
2023-02-19T13:21:03.181Z,1.27
2023-02-19T13:23:57.419Z,2.50
2023-02-19T13:26:51.890Z,2.30
2023-02-19T13:29:40.110Z,2.58
2023-02-19T13:32:29.350Z,2.08
2023-02-19T13:35:19.616Z,2.15
2023-02-19T13:37:54.311Z,1.92
2023-02-19T13:40:31.444Z,1.73
2023-02-19T13:43:06.313Z,2.25
2023-02-19T13:45:41.877Z,1.98
2023-02-19T13:48:25.000Z,2.47
2023-02-19T13:51:34.302Z,2.47
2023-02-19T13:54:25.804Z,2.63
2023-02-19T13:57:28.856Z,2.30
2023-02-19T14:00:01.445Z,2.63
2023-02-19T14:02:35.507Z,2.42
2023-02-19T14:05:10.202Z,2.05
2023-02-19T14:07:51.310Z,1.88
2023-02-19T14:10:52.111Z,2.83
2023-02-19T14:14:10.963Z,2.05
2023-02-19T14:17:03.882Z,2.92
2023-02-19T14:19:59.496Z,2.20
2023-02-19T14:23:01.501Z,2.15
2023-02-19T14:25:52.837Z,2.28
2023-02-19T14:28:43.141Z,2.38
2023-02-19T14:31:24.507Z,2.33
2023-02-19T14:34:00.316Z,2.25
2023-02-19T14:36:39.886Z,2.65
2023-02-19T14:41:49.365Z,3.63
2023-02-19T14:44:25.879Z,4.88
2023-02-19T14:47:03.121Z,3.08
2023-02-19T14:49:42.391Z,2.40
2023-02-19T14:52:19.176Z,2.95
2023-02-19T14:54:56.356Z,4.30
2023-02-19T14:57:30.954Z,4.00
2023-02-19T15:00:21.432Z,3.50
2023-02-19T15:02:56.793Z,3.10
2023-02-19T15:05:31.251Z,3.30
2023-02-19T15:08:08.864Z,3.70
2023-02-19T15:10:43.078Z,3.97
2023-02-19T15:13:24.711Z,3.58
2023-02-19T15:15:57.570Z,4.35
2023-02-19T15:18:34.933Z,4.00
2023-02-19T15:21:09.007Z,3.67
2023-02-19T15:23:42.575Z,4.15
2023-02-19T15:26:20.817Z,5.63
2023-02-19T15:29:00.913Z,10.52
2023-02-19T15:31:33.244Z,9.45
2023-02-19T15:34:14.897Z,5.93
2023-02-19T15:36:49.622Z,4.68
2023-02-19T15:39:24.753Z,4.47
2023-02-19T15:42:00.576Z,5.47
2023-02-19T15:44:48.190Z,12.20
2023-02-19T15:47:25.652Z,5.55
2023-02-19T15:50:05.279Z,3.55
2023-02-19T15:55:26.792Z,4.15
2023-02-19T15:58:05.389Z,4.55
2023-02-19T16:00:42.698Z,2.20
2023-02-19T16:03:18.752Z,4.18
2023-02-19T16:06:01.597Z,8.35
2023-02-19T16:08:35.739Z,7.70
2023-02-19T16:11:27.249Z,10.32
2023-02-19T16:14:23.097Z,13.23
2023-02-19T16:16:58.541Z,12.25
2023-02-19T16:19:48.513Z,9.85
2023-02-19T16:22:23.959Z,9.35
2023-02-19T16:24:59.386Z,6.28
2023-02-19T16:27:36.057Z,6.93
2023-02-19T16:30:24.778Z,7.50
2023-02-19T16:33:20.202Z,10.13
2023-02-19T16:35:52.607Z,7.97
2023-02-19T16:38:25.012Z,9.63
2023-02-19T16:41:12.416Z,7.70
2023-02-19T16:43:45.555Z,8.73
2023-02-19T16:46:17.943Z,9.30
2023-02-19T16:48:50.977Z,11.77
2023-02-19T16:51:25.337Z,9.10
2023-02-19T16:53:57.645Z,7.20
2023-02-19T16:56:30.356Z,9.15
2023-02-19T16:59:04.070Z,11.23
2023-02-19T17:01:37.527Z,13.13
2023-02-19T17:04:12.591Z,11.48
2023-02-19T17:06:45.263Z,10.98
2023-02-19T17:09:17.875Z,11.02
2023-02-19T17:11:50.151Z,10.32
2023-02-19T17:14:23.093Z,9.35
2023-02-19T17:16:55.378Z,9.00
2023-02-19T17:19:27.717Z,11.90
2023-02-19T17:22:00.030Z,23.42
2023-02-19T17:24:32.826Z,22.55
2023-02-19T17:27:05.782Z,19.60
2023-02-19T17:29:38.776Z,19.10
2023-02-19T17:32:11.244Z,17.05
2023-02-19T17:34:43.691Z,19.77
2023-02-19T17:37:15.989Z,12.77
2023-02-19T17:39:48.946Z,11.48
2023-02-19T17:42:21.203Z,13.00
2023-02-19T17:44:54.216Z,13.85
2023-02-19T17:47:26.460Z,19.83
2023-02-19T17:50:00.917Z,21.08
2023-02-19T17:52:33.287Z,14.73
2023-02-19T17:55:06.223Z,17.02
2023-02-19T17:57:38.662Z,13.80
2023-02-19T18:00:14.719Z,13.93
2023-02-19T18:02:47.036Z,13.98
2023-02-19T18:05:19.429Z,11.13
2023-02-19T18:07:51.902Z,11.10
2023-02-19T18:10:24.637Z,10.85
2023-02-19T18:12:57.163Z,14.35
2023-02-19T18:15:30.225Z,15.07
2023-02-19T18:18:04.275Z,10.80
2023-02-19T18:20:36.924Z,9.13
2023-02-19T18:23:09.264Z,14.93
2023-02-19T18:25:41.565Z,15.18
2023-02-19T18:28:14.267Z,11.27
2023-02-19T18:30:47.524Z,9.63
2023-02-19T18:33:19.950Z,11.27
2023-02-19T18:35:52.289Z,9.23
2023-02-19T18:38:24.608Z,7.82
2023-02-19T18:40:58.785Z,10.80
2023-02-19T18:43:31.244Z,10.30
2023-02-19T18:46:07.293Z,10.77
2023-02-19T18:48:40.038Z,10.70
2023-02-19T18:51:12.590Z,11.50
2023-02-19T18:53:45.450Z,29.02
2023-02-19T18:56:17.879Z,22.52
2023-02-19T18:58:50.478Z,17.52
2023-02-19T19:01:23.574Z,20.33
2023-02-19T19:03:55.939Z,20.63
2023-02-19T19:06:28.398Z,20.23
2023-02-19T19:09:01.112Z,16.15
2023-02-19T19:11:33.438Z,15.35
2023-02-19T19:14:05.788Z,14.85
2023-02-19T19:16:38.786Z,15.85
2023-02-19T19:19:11.764Z,21.17
2023-02-19T19:21:44.080Z,21.27
2023-02-19T19:24:16.413Z,21.30
2023-02-19T19:26:50.374Z,19.70
2023-02-19T19:29:23.196Z,20.02
2023-02-19T19:31:56.270Z,37.95
2023-02-19T19:34:28.626Z,23.40
2023-02-19T19:37:00.975Z,28.60
2023-02-19T19:39:33.230Z,16.23
2023-02-19T19:42:07.164Z,10.95
2023-02-19T19:44:39.621Z,12.88
2023-02-19T19:47:14.089Z,8.55
2023-02-19T19:49:46.832Z,16.02
2023-02-19T19:52:19.200Z,16.65
2023-02-19T19:54:53.293Z,13.90
2023-02-19T19:57:25.573Z,12.15
2023-02-19T19:59:57.933Z,9.50
2023-02-19T20:02:30.934Z,9.98
2023-02-19T20:05:03.378Z,8.80
2023-02-19T20:07:36.100Z,7.22
2023-02-19T20:10:10.897Z,4.50
2023-02-19T20:12:43.475Z,4.28
2023-02-19T20:15:20.291Z,9.00
2023-02-19T20:17:53.248Z,8.60
2023-02-19T20:20:25.555Z,9.55
2023-02-19T20:22:57.847Z,6.47
2023-02-19T20:25:30.148Z,8.05
2023-02-19T20:28:02.510Z,8.43
2023-02-19T20:30:36.504Z,8.45
2023-02-19T20:33:09.535Z,8.73
2023-02-19T20:35:42.094Z,8.00
2023-02-19T20:38:15.144Z,10.35
2023-02-19T20:40:47.458Z,7.72
2023-02-19T20:43:19.744Z,7.57
2023-02-19T20:45:52.062Z,8.32
2023-02-19T20:48:25.048Z,8.95
2023-02-19T20:50:59.400Z,8.27
2023-02-19T20:53:32.289Z,9.50
2023-02-19T20:56:05.710Z,9.63
2023-02-19T20:58:38.392Z,11.20
2023-02-19T21:01:11.392Z,12.98
2023-02-19T21:03:44.689Z,12.00
2023-02-19T21:06:16.986Z,12.13
2023-02-19T21:08:49.272Z,12.00
2023-02-19T21:11:21.760Z,13.02
2023-02-19T21:13:58.220Z,10.32
2023-02-19T21:16:31.842Z,12.43
2023-02-19T21:19:04.980Z,9.05
2023-02-19T21:21:39.492Z,7.13
2023-02-19T21:24:13.124Z,7.13
2023-02-19T21:26:45.654Z,8.02
2023-02-19T21:29:20.864Z,8.48
2023-02-19T21:31:55.805Z,7.22
2023-02-19T21:34:29.588Z,6.65
2023-02-19T21:37:02.149Z,7.57
2023-02-19T21:39:34.503Z,8.45
2023-02-19T21:42:06.815Z,8.77
2023-02-19T21:44:39.117Z,6.82
2023-02-19T21:47:11.714Z,5.18
2023-02-19T21:49:44.928Z,6.18
2023-02-19T21:52:17.167Z,7.45
2023-02-19T21:54:49.455Z,7.43
2023-02-19T21:57:21.725Z,8.52
2023-02-19T21:59:54.074Z,7.85
2023-02-19T22:02:26.382Z,8.73
2023-02-19T22:04:59.351Z,7.68
2023-02-19T22:07:31.643Z,7.47
2023-02-19T22:10:11.438Z,8.93
2023-02-19T22:15:15.887Z,8.18
2023-02-19T22:17:48.140Z,8.05
2023-02-19T22:20:22.524Z,7.47
2023-02-19T22:22:54.855Z,7.70
2023-02-19T22:25:27.167Z,5.78
2023-02-19T22:28:00.143Z,7.10
2023-02-19T22:30:33.087Z,7.78
2023-02-19T22:33:05.413Z,6.50
2023-02-19T22:35:38.404Z,5.88
2023-02-19T22:38:10.734Z,6.38
2023-02-19T22:40:43.214Z,6.10
2023-02-19T22:43:16.977Z,6.68
2023-02-19T22:45:49.582Z,5.88
2023-02-19T22:48:29.521Z,4.75
2023-02-19T22:51:03.435Z,7.03
2023-02-19T22:53:35.716Z,6.75
2023-02-19T22:56:07.997Z,4.80
2023-02-19T22:58:41.259Z,5.63
2023-02-19T23:01:14.202Z,6.00
2023-02-19T23:03:48.600Z,4.40
2023-02-19T23:06:24.137Z,6.80
2023-02-19T23:08:58.455Z,4.85
2023-02-19T23:11:34.739Z,4.75
2023-02-19T23:14:07.544Z,5.20
2023-02-19T23:16:39.901Z,6.03
2023-02-19T23:19:14.450Z,5.05
2023-02-19T23:21:47.617Z,6.90
2023-02-19T23:24:20.403Z,5.10
2023-02-19T23:26:53.130Z,5.00
2023-02-19T23:29:27.283Z,4.85
2023-02-19T23:31:59.883Z,4.63
2023-02-19T23:34:32.687Z,6.20
2023-02-19T23:37:05.980Z,4.15
2023-02-19T23:39:38.187Z,5.05
2023-02-19T23:42:14.639Z,4.80
2023-02-19T23:44:47.015Z,4.90
2023-02-19T23:47:21.193Z,5.32
2023-02-19T23:49:53.708Z,5.43
2023-02-19T23:52:26.632Z,5.30
2023-02-19T23:54:58.899Z,5.35
2023-02-19T23:57:31.285Z,4.47
